sensor_id;sensor_type;location;lat;lon;timestamp;P1;durP1;ratioP1;P2;durP2;ratioP2
71148;SDS011;59072;42.144;25.200;2022-07-23T00:01:53;6.32;;;2.95;;
71148;SDS011;59072;42.144;25.200;2022-07-23T00:04:19;13.98;;;4.10;;
71148;SDS011;59072;42.144;25.200;2022-07-23T00:06:44;7.20;;;3.40;;
71148;SDS011;59072;42.144;25.200;2022-07-23T00:09:10;7.05;;;3.45;;
71148;SDS011;59072;42.144;25.200;2022-07-23T00:11:35;7.88;;;3.53;;
71148;SDS011;59072;42.144;25.200;2022-07-23T00:14:01;7.35;;;3.53;;
71148;SDS011;59072;42.144;25.200;2022-07-23T00:16:27;7.75;;;3.50;;
71148;SDS011;59072;42.144;25.200;2022-07-23T00:18:52;6.28;;;3.58;;
71148;SDS011;59072;42.144;25.200;2022-07-23T00:21:18;7.45;;;3.40;;
71148;SDS011;59072;42.144;25.200;2022-07-23T00:23:43;9.35;;;4.15;;
71148;SDS011;59072;42.144;25.200;2022-07-23T00:26:09;7.43;;;3.80;;
71148;SDS011;59072;42.144;25.200;2022-07-23T00:28:34;8.80;;;4.75;;
71148;SDS011;59072;42.144;25.200;2022-07-23T00:30:59;11.45;;;4.55;;
71148;SDS011;59072;42.144;25.200;2022-07-23T00:33:25;7.82;;;3.70;;
71148;SDS011;59072;42.144;25.200;2022-07-23T00:35:50;12.00;;;4.00;;
71148;SDS011;59072;42.144;25.200;2022-07-23T00:38:16;10.02;;;3.80;;
71148;SDS011;59072;42.144;25.200;2022-07-23T00:40:41;6.45;;;3.60;;
71148;SDS011;59072;42.144;25.200;2022-07-23T00:43:07;6.97;;;3.70;;
71148;SDS011;59072;42.144;25.200;2022-07-23T00:45:33;5.43;;;3.50;;
71148;SDS011;59072;42.144;25.200;2022-07-23T00:47:58;6.53;;;3.85;;
71148;SDS011;59072;42.144;25.200;2022-07-23T00:50:24;8.63;;;4.03;;
71148;SDS011;59072;42.144;25.200;2022-07-23T00:52:50;7.43;;;4.25;;
71148;SDS011;59072;42.144;25.200;2022-07-23T00:55:16;6.40;;;3.90;;
71148;SDS011;59072;42.144;25.200;2022-07-23T00:57:42;8.65;;;4.35;;
71148;SDS011;59072;42.144;25.200;2022-07-23T01:00:09;6.47;;;4.22;;
71148;SDS011;59072;42.144;25.200;2022-07-23T01:02:36;10.10;;;3.83;;
71148;SDS011;59072;42.144;25.200;2022-07-23T01:05:03;9.32;;;3.85;;
71148;SDS011;59072;42.144;25.200;2022-07-23T01:07:29;7.55;;;4.00;;
71148;SDS011;59072;42.144;25.200;2022-07-23T01:09:55;6.38;;;4.20;;
71148;SDS011;59072;42.144;25.200;2022-07-23T01:12:21;7.70;;;4.00;;
71148;SDS011;59072;42.144;25.200;2022-07-23T01:14:53;7.53;;;4.68;;
71148;SDS011;59072;42.144;25.200;2022-07-23T01:17:25;8.32;;;3.90;;
71148;SDS011;59072;42.144;25.200;2022-07-23T01:19:51;7.50;;;4.85;;
71148;SDS011;59072;42.144;25.200;2022-07-23T01:22:17;7.75;;;4.00;;
71148;SDS011;59072;42.144;25.200;2022-07-23T01:24:44;6.20;;;4.35;;
71148;SDS011;59072;42.144;25.200;2022-07-23T01:27:10;8.75;;;4.80;;
71148;SDS011;59072;42.144;25.200;2022-07-23T01:29:37;9.02;;;4.10;;
71148;SDS011;59072;42.144;25.200;2022-07-23T01:32:03;6.97;;;4.45;;
71148;SDS011;59072;42.144;25.200;2022-07-23T01:34:29;8.55;;;4.30;;
71148;SDS011;59072;42.144;25.200;2022-07-23T01:36:54;6.45;;;4.60;;
71148;SDS011;59072;42.144;25.200;2022-07-23T01:39:20;6.70;;;4.97;;
71148;SDS011;59072;42.144;25.200;2022-07-23T01:41:45;8.77;;;4.43;;
71148;SDS011;59072;42.144;25.200;2022-07-23T01:44:11;10.27;;;4.38;;
71148;SDS011;59072;42.144;25.200;2022-07-23T01:46:38;7.20;;;4.60;;
71148;SDS011;59072;42.144;25.200;2022-07-23T01:49:04;10.20;;;4.82;;
71148;SDS011;59072;42.144;25.200;2022-07-23T01:51:29;7.18;;;4.80;;
71148;SDS011;59072;42.144;25.200;2022-07-23T01:53:54;7.72;;;4.40;;
71148;SDS011;59072;42.144;25.200;2022-07-23T01:56:20;9.50;;;4.55;;
71148;SDS011;59072;42.144;25.200;2022-07-23T01:58:46;8.80;;;4.32;;
71148;SDS011;59072;42.144;25.200;2022-07-23T02:01:12;8.30;;;4.45;;
71148;SDS011;59072;42.144;25.200;2022-07-23T02:03:38;8.02;;;4.30;;
71148;SDS011;59072;42.144;25.200;2022-07-23T02:06:03;8.02;;;4.40;;
71148;SDS011;59072;42.144;25.200;2022-07-23T02:08:29;7.72;;;4.40;;
71148;SDS011;59072;42.144;25.200;2022-07-23T02:10:54;8.77;;;4.05;;
71148;SDS011;59072;42.144;25.200;2022-07-23T02:13:20;8.38;;;4.50;;
71148;SDS011;59072;42.144;25.200;2022-07-23T02:15:46;7.20;;;4.68;;
71148;SDS011;59072;42.144;25.200;2022-07-23T02:18:12;7.40;;;4.47;;
71148;SDS011;59072;42.144;25.200;2022-07-23T02:20:37;10.88;;;4.80;;
71148;SDS011;59072;42.144;25.200;2022-07-23T02:23:03;7.65;;;4.53;;
71148;SDS011;59072;42.144;25.200;2022-07-23T02:25:29;8.20;;;4.28;;
71148;SDS011;59072;42.144;25.200;2022-07-23T02:27:55;14.55;;;5.10;;
71148;SDS011;59072;42.144;25.200;2022-07-23T02:30:20;8.45;;;4.18;;
71148;SDS011;59072;42.144;25.200;2022-07-23T02:32:46;9.27;;;4.30;;
71148;SDS011;59072;42.144;25.200;2022-07-23T02:35:11;9.80;;;4.30;;
71148;SDS011;59072;42.144;25.200;2022-07-23T02:37:37;8.27;;;4.70;;
71148;SDS011;59072;42.144;25.200;2022-07-23T02:40:02;7.95;;;5.07;;
71148;SDS011;59072;42.144;25.200;2022-07-23T02:42:28;8.88;;;4.82;;
71148;SDS011;59072;42.144;25.200;2022-07-23T02:44:54;9.93;;;4.80;;
71148;SDS011;59072;42.144;25.200;2022-07-23T02:47:19;8.32;;;5.03;;
71148;SDS011;59072;42.144;25.200;2022-07-23T02:49:44;8.30;;;4.38;;
71148;SDS011;59072;42.144;25.200;2022-07-23T02:52:10;9.80;;;4.93;;
71148;SDS011;59072;42.144;25.200;2022-07-23T02:54:36;10.07;;;4.97;;
71148;SDS011;59072;42.144;25.200;2022-07-23T02:57:02;9.43;;;5.05;;
71148;SDS011;59072;42.144;25.200;2022-07-23T02:59:29;9.90;;;4.88;;
71148;SDS011;59072;42.144;25.200;2022-07-23T03:01:54;12.98;;;5.10;;
71148;SDS011;59072;42.144;25.200;2022-07-23T03:04:20;11.48;;;5.28;;
71148;SDS011;59072;42.144;25.200;2022-07-23T03:06:45;9.48;;;4.80;;
71148;SDS011;59072;42.144;25.200;2022-07-23T03:09:11;12.25;;;5.25;;
71148;SDS011;59072;42.144;25.200;2022-07-23T03:11:37;10.73;;;5.53;;
71148;SDS011;59072;42.144;25.200;2022-07-23T03:14:02;10.75;;;5.15;;
71148;SDS011;59072;42.144;25.200;2022-07-23T03:16:28;10.50;;;4.68;;
71148;SDS011;59072;42.144;25.200;2022-07-23T03:18:53;14.48;;;5.30;;
71148;SDS011;59072;42.144;25.200;2022-07-23T03:21:19;12.02;;;5.35;;
71148;SDS011;59072;42.144;25.200;2022-07-23T03:23:44;10.55;;;4.90;;
71148;SDS011;59072;42.144;25.200;2022-07-23T03:26:09;11.35;;;5.72;;
71148;SDS011;59072;42.144;25.200;2022-07-23T03:28:35;10.18;;;4.65;;
71148;SDS011;59072;42.144;25.200;2022-07-23T03:31:00;11.65;;;4.80;;
71148;SDS011;59072;42.144;25.200;2022-07-23T03:33:26;11.15;;;5.63;;
71148;SDS011;59072;42.144;25.200;2022-07-23T03:35:51;12.75;;;5.55;;
71148;SDS011;59072;42.144;25.200;2022-07-23T03:38:17;11.63;;;4.90;;
71148;SDS011;59072;42.144;25.200;2022-07-23T03:40:42;9.35;;;5.00;;
71148;SDS011;59072;42.144;25.200;2022-07-23T03:43:08;10.60;;;5.25;;
71148;SDS011;59072;42.144;25.200;2022-07-23T03:45:33;13.60;;;5.10;;
71148;SDS011;59072;42.144;25.200;2022-07-23T03:47:59;12.73;;;5.50;;
71148;SDS011;59072;42.144;25.200;2022-07-23T03:50:25;11.38;;;6.15;;
71148;SDS011;59072;42.144;25.200;2022-07-23T03:52:51;9.07;;;5.38;;
71148;SDS011;59072;42.144;25.200;2022-07-23T03:55:16;8.57;;;5.35;;
71148;SDS011;59072;42.144;25.200;2022-07-23T03:57:42;12.05;;;4.90;;
71148;SDS011;59072;42.144;25.200;2022-07-23T04:00:08;10.50;;;5.88;;
71148;SDS011;59072;42.144;25.200;2022-07-23T04:02:35;12.47;;;5.10;;
71148;SDS011;59072;42.144;25.200;2022-07-23T04:05:01;14.77;;;5.40;;
71148;SDS011;59072;42.144;25.200;2022-07-23T04:07:27;10.65;;;5.15;;
71148;SDS011;59072;42.144;25.200;2022-07-23T04:09:52;8.30;;;4.78;;
71148;SDS011;59072;42.144;25.200;2022-07-23T04:12:18;12.73;;;5.35;;
71148;SDS011;59072;42.144;25.200;2022-07-23T04:14:43;13.52;;;5.07;;
71148;SDS011;59072;42.144;25.200;2022-07-23T04:17:09;9.50;;;5.15;;
71148;SDS011;59072;42.144;25.200;2022-07-23T04:19:34;8.68;;;4.78;;
71148;SDS011;59072;42.144;25.200;2022-07-23T04:22:05;12.35;;;5.32;;
71148;SDS011;59072;42.144;25.200;2022-07-23T04:24:31;11.52;;;5.47;;
71148;SDS011;59072;42.144;25.200;2022-07-23T04:26:56;11.20;;;5.78;;
71148;SDS011;59072;42.144;25.200;2022-07-23T04:29:22;10.75;;;5.60;;
71148;SDS011;59072;42.144;25.200;2022-07-23T04:31:48;10.38;;;6.00;;
71148;SDS011;59072;42.144;25.200;2022-07-23T04:34:13;8.90;;;6.13;;
71148;SDS011;59072;42.144;25.200;2022-07-23T04:36:39;9.68;;;6.18;;
71148;SDS011;59072;42.144;25.200;2022-07-23T04:39:04;10.90;;;5.82;;
71148;SDS011;59072;42.144;25.200;2022-07-23T04:41:30;16.20;;;6.78;;
71148;SDS011;59072;42.144;25.200;2022-07-23T04:43:55;15.10;;;7.10;;
71148;SDS011;59072;42.144;25.200;2022-07-23T04:46:21;11.05;;;6.45;;
71148;SDS011;59072;42.144;25.200;2022-07-23T04:48:46;13.43;;;6.80;;
71148;SDS011;59072;42.144;25.200;2022-07-23T04:51:11;12.23;;;6.57;;
71148;SDS011;59072;42.144;25.200;2022-07-23T04:53:37;14.23;;;7.47;;
71148;SDS011;59072;42.144;25.200;2022-07-23T04:56:03;15.48;;;8.68;;
71148;SDS011;59072;42.144;25.200;2022-07-23T04:58:29;18.15;;;9.80;;
71148;SDS011;59072;42.144;25.200;2022-07-23T05:00:56;20.30;;;10.80;;
71148;SDS011;59072;42.144;25.200;2022-07-23T05:03:23;16.65;;;9.48;;
71148;SDS011;59072;42.144;25.200;2022-07-23T05:05:48;22.88;;;11.90;;
71148;SDS011;59072;42.144;25.200;2022-07-23T05:08:14;21.55;;;13.15;;
71148;SDS011;59072;42.144;25.200;2022-07-23T05:10:40;23.77;;;13.75;;
71148;SDS011;59072;42.144;25.200;2022-07-23T05:13:05;14.93;;;10.25;;
71148;SDS011;59072;42.144;25.200;2022-07-23T05:15:31;14.73;;;9.05;;
71148;SDS011;59072;42.144;25.200;2022-07-23T05:17:56;14.60;;;8.05;;
71148;SDS011;59072;42.144;25.200;2022-07-23T05:20:22;14.52;;;7.90;;
71148;SDS011;59072;42.144;25.200;2022-07-23T05:22:48;12.20;;;8.18;;
71148;SDS011;59072;42.144;25.200;2022-07-23T05:25:13;14.82;;;7.75;;
71148;SDS011;59072;42.144;25.200;2022-07-23T05:27:39;13.80;;;8.43;;
71148;SDS011;59072;42.144;25.200;2022-07-23T05:30:04;12.07;;;8.35;;
71148;SDS011;59072;42.144;25.200;2022-07-23T05:32:31;11.45;;;8.45;;
71148;SDS011;59072;42.144;25.200;2022-07-23T05:34:57;17.27;;;9.20;;
71148;SDS011;59072;42.144;25.200;2022-07-23T05:37:22;12.43;;;8.88;;
71148;SDS011;59072;42.144;25.200;2022-07-23T05:39:48;13.55;;;8.77;;
71148;SDS011;59072;42.144;25.200;2022-07-23T05:42:13;13.68;;;9.43;;
71148;SDS011;59072;42.144;25.200;2022-07-23T05:44:39;14.90;;;8.70;;
71148;SDS011;59072;42.144;25.200;2022-07-23T05:47:04;9.85;;;8.50;;
71148;SDS011;59072;42.144;25.200;2022-07-23T05:49:30;11.50;;;8.00;;
71148;SDS011;59072;42.144;25.200;2022-07-23T05:51:55;13.18;;;8.30;;
71148;SDS011;59072;42.144;25.200;2022-07-23T05:54:21;12.48;;;8.00;;
71148;SDS011;59072;42.144;25.200;2022-07-23T05:56:46;11.30;;;8.70;;
71148;SDS011;59072;42.144;25.200;2022-07-23T05:59:11;16.70;;;10.27;;
71148;SDS011;59072;42.144;25.200;2022-07-23T06:01:38;15.02;;;9.07;;
71148;SDS011;59072;42.144;25.200;2022-07-23T06:04:03;11.88;;;8.07;;
71148;SDS011;59072;42.144;25.200;2022-07-23T06:06:29;10.38;;;7.32;;
71148;SDS011;59072;42.144;25.200;2022-07-23T06:08:54;11.57;;;7.00;;
71148;SDS011;59072;42.144;25.200;2022-07-23T06:11:20;14.98;;;8.50;;
71148;SDS011;59072;42.144;25.200;2022-07-23T06:13:45;14.10;;;7.53;;
71148;SDS011;59072;42.144;25.200;2022-07-23T06:16:11;11.57;;;7.32;;
71148;SDS011;59072;42.144;25.200;2022-07-23T06:18:36;12.35;;;7.80;;
71148;SDS011;59072;42.144;25.200;2022-07-23T06:21:02;12.75;;;7.70;;
71148;SDS011;59072;42.144;25.200;2022-07-23T06:23:27;13.45;;;7.13;;
71148;SDS011;59072;42.144;25.200;2022-07-23T06:25:53;13.90;;;6.93;;
71148;SDS011;59072;42.144;25.200;2022-07-23T06:28:18;13.23;;;7.03;;
71148;SDS011;59072;42.144;25.200;2022-07-23T06:30:43;13.82;;;6.60;;
71148;SDS011;59072;42.144;25.200;2022-07-23T06:33:09;10.25;;;6.82;;
71148;SDS011;59072;42.144;25.200;2022-07-23T06:35:36;12.93;;;6.72;;
71148;SDS011;59072;42.144;25.200;2022-07-23T06:38:02;11.15;;;6.82;;
71148;SDS011;59072;42.144;25.200;2022-07-23T06:40:27;11.18;;;6.60;;
71148;SDS011;59072;42.144;25.200;2022-07-23T06:42:53;10.10;;;6.38;;
71148;SDS011;59072;42.144;25.200;2022-07-23T06:45:18;10.52;;;6.82;;
71148;SDS011;59072;42.144;25.200;2022-07-23T06:47:44;12.93;;;6.90;;
71148;SDS011;59072;42.144;25.200;2022-07-23T06:50:09;10.23;;;6.50;;
71148;SDS011;59072;42.144;25.200;2022-07-23T06:52:35;9.25;;;6.57;;
71148;SDS011;59072;42.144;25.200;2022-07-23T06:55:01;8.70;;;6.28;;
71148;SDS011;59072;42.144;25.200;2022-07-23T06:57:26;8.40;;;5.97;;
71148;SDS011;59072;42.144;25.200;2022-07-23T06:59:52;8.05;;;6.18;;
71148;SDS011;59072;42.144;25.200;2022-07-23T07:02:17;9.30;;;5.95;;
71148;SDS011;59072;42.144;25.200;2022-07-23T07:04:43;9.52;;;5.82;;
71148;SDS011;59072;42.144;25.200;2022-07-23T07:07:08;9.27;;;5.93;;
71148;SDS011;59072;42.144;25.200;2022-07-23T07:09:34;9.30;;;6.65;;
71148;SDS011;59072;42.144;25.200;2022-07-23T07:12:00;10.25;;;5.93;;
71148;SDS011;59072;42.144;25.200;2022-07-23T07:14:25;8.80;;;6.18;;
71148;SDS011;59072;42.144;25.200;2022-07-23T07:16:51;9.40;;;6.13;;
71148;SDS011;59072;42.144;25.200;2022-07-23T07:19:16;11.82;;;6.20;;
71148;SDS011;59072;42.144;25.200;2022-07-23T07:21:42;9.75;;;5.90;;
71148;SDS011;59072;42.144;25.200;2022-07-23T07:24:07;14.25;;;5.85;;
71148;SDS011;59072;42.144;25.200;2022-07-23T07:26:33;8.10;;;6.25;;
71148;SDS011;59072;42.144;25.200;2022-07-23T07:28:59;10.50;;;5.82;;
71148;SDS011;59072;42.144;25.200;2022-07-23T07:31:24;10.23;;;5.82;;
71148;SDS011;59072;42.144;25.200;2022-07-23T07:33:50;10.68;;;5.88;;
71148;SDS011;59072;42.144;25.200;2022-07-23T07:36:15;12.90;;;5.82;;
71148;SDS011;59072;42.144;25.200;2022-07-23T07:38:41;9.60;;;5.50;;
71148;SDS011;59072;42.144;25.200;2022-07-23T07:41:06;10.32;;;5.93;;
71148;SDS011;59072;42.144;25.200;2022-07-23T07:43:32;11.20;;;6.45;;
71148;SDS011;59072;42.144;25.200;2022-07-23T07:45:58;12.70;;;6.50;;
71148;SDS011;59072;42.144;25.200;2022-07-23T07:48:24;9.43;;;6.00;;
71148;SDS011;59072;42.144;25.200;2022-07-23T07:50:49;9.57;;;6.07;;
71148;SDS011;59072;42.144;25.200;2022-07-23T07:53:15;11.27;;;6.25;;
71148;SDS011;59072;42.144;25.200;2022-07-23T07:55:40;9.93;;;6.03;;
71148;SDS011;59072;42.144;25.200;2022-07-23T07:58:06;11.88;;;6.65;;
71148;SDS011;59072;42.144;25.200;2022-07-23T08:00:31;10.85;;;6.00;;
71148;SDS011;59072;42.144;25.200;2022-07-23T08:02:58;10.20;;;6.43;;
71148;SDS011;59072;42.144;25.200;2022-07-23T08:05:27;10.40;;;6.25;;
71148;SDS011;59072;42.144;25.200;2022-07-23T08:07:58;11.45;;;6.03;;
71148;SDS011;59072;42.144;25.200;2022-07-23T08:10:24;9.63;;;6.60;;
71148;SDS011;59072;42.144;25.200;2022-07-23T08:12:52;9.18;;;6.55;;
71148;SDS011;59072;42.144;25.200;2022-07-23T08:15:19;8.82;;;5.47;;
71148;SDS011;59072;42.144;25.200;2022-07-23T08:17:47;8.52;;;5.72;;
71148;SDS011;59072;42.144;25.200;2022-07-23T08:20:16;12.07;;;6.18;;
71148;SDS011;59072;42.144;25.200;2022-07-23T08:25:15;9.20;;;6.20;;
71148;SDS011;59072;42.144;25.200;2022-07-23T08:27:44;9.82;;;6.00;;
71148;SDS011;59072;42.144;25.200;2022-07-23T08:30:10;7.70;;;6.05;;
71148;SDS011;59072;42.144;25.200;2022-07-23T08:33:10;11.02;;;5.57;;
71148;SDS011;59072;42.144;25.200;2022-07-23T08:35:41;9.23;;;6.05;;
71148;SDS011;59072;42.144;25.200;2022-07-23T08:38:12;9.93;;;5.63;;
71148;SDS011;59072;42.144;25.200;2022-07-23T08:40:41;9.38;;;5.63;;
71148;SDS011;59072;42.144;25.200;2022-07-23T08:43:13;10.15;;;6.03;;
71148;SDS011;59072;42.144;25.200;2022-07-23T08:45:42;10.05;;;5.70;;
71148;SDS011;59072;42.144;25.200;2022-07-23T08:48:16;7.63;;;5.50;;
71148;SDS011;59072;42.144;25.200;2022-07-23T08:50:44;9.68;;;5.80;;
71148;SDS011;59072;42.144;25.200;2022-07-23T08:53:14;9.52;;;5.53;;
71148;SDS011;59072;42.144;25.200;2022-07-23T08:58:10;10.13;;;5.57;;
71148;SDS011;59072;42.144;25.200;2022-07-23T09:00:36;8.52;;;5.38;;
71148;SDS011;59072;42.144;25.200;2022-07-23T09:03:02;8.70;;;5.75;;
71148;SDS011;59072;42.144;25.200;2022-07-23T09:05:27;8.98;;;5.80;;
71148;SDS011;59072;42.144;25.200;2022-07-23T09:10:59;9.80;;;5.28;;
71148;SDS011;59072;42.144;25.200;2022-07-23T09:18:36;10.13;;;5.35;;
71148;SDS011;59072;42.144;25.200;2022-07-23T09:23:59;11.95;;;5.95;;
71148;SDS011;59072;42.144;25.200;2022-07-23T09:31:57;10.80;;;6.78;;
71148;SDS011;59072;42.144;25.200;2022-07-23T09:36:50;10.50;;;6.43;;
71148;SDS011;59072;42.144;25.200;2022-07-23T09:39:24;9.45;;;6.03;;
71148;SDS011;59072;42.144;25.200;2022-07-23T09:41:51;11.20;;;5.30;;
71148;SDS011;59072;42.144;25.200;2022-07-23T09:44:18;10.13;;;5.97;;
71148;SDS011;59072;42.144;25.200;2022-07-23T09:46:45;10.27;;;5.80;;
71148;SDS011;59072;42.144;25.200;2022-07-23T09:49:16;11.90;;;5.70;;
71148;SDS011;59072;42.144;25.200;2022-07-23T09:54:23;11.75;;;6.18;;
71148;SDS011;59072;42.144;25.200;2022-07-23T09:56:56;9.80;;;5.45;;
71148;SDS011;59072;42.144;25.200;2022-07-23T09:59:23;7.53;;;4.97;;
71148;SDS011;59072;42.144;25.200;2022-07-23T10:01:52;12.10;;;5.50;;
71148;SDS011;59072;42.144;25.200;2022-07-23T10:04:22;8.80;;;5.50;;
71148;SDS011;59072;42.144;25.200;2022-07-23T10:06:53;9.13;;;5.22;;
71148;SDS011;59072;42.144;25.200;2022-07-23T10:09:22;7.90;;;5.38;;
71148;SDS011;59072;42.144;25.200;2022-07-23T10:11:59;10.15;;;5.47;;
71148;SDS011;59072;42.144;25.200;2022-07-23T10:14:35;9.13;;;5.40;;
71148;SDS011;59072;42.144;25.200;2022-07-23T10:17:03;8.90;;;5.72;;
71148;SDS011;59072;42.144;25.200;2022-07-23T10:19:29;10.68;;;5.50;;
71148;SDS011;59072;42.144;25.200;2022-07-23T10:21:57;11.70;;;8.50;;
71148;SDS011;59072;42.144;25.200;2022-07-23T10:29:55;7.97;;;4.72;;
71148;SDS011;59072;42.144;25.200;2022-07-23T10:34:58;9.85;;;5.25;;
71148;SDS011;59072;42.144;25.200;2022-07-23T10:37:49;12.77;;;4.65;;
71148;SDS011;59072;42.144;25.200;2022-07-23T10:40:22;6.90;;;4.07;;
71148;SDS011;59072;42.144;25.200;2022-07-23T10:42:49;9.23;;;4.13;;
71148;SDS011;59072;42.144;25.200;2022-07-23T10:45:27;7.65;;;4.13;;
71148;SDS011;59072;42.144;25.200;2022-07-23T10:47:56;8.05;;;4.78;;
71148;SDS011;59072;42.144;25.200;2022-07-23T10:50:40;9.77;;;4.22;;
71148;SDS011;59072;42.144;25.200;2022-07-23T10:57:59;8.27;;;4.27;;
71148;SDS011;59072;42.144;25.200;2022-07-23T11:00:29;7.95;;;4.43;;
71148;SDS011;59072;42.144;25.200;2022-07-23T11:02:56;7.53;;;4.38;;
71148;SDS011;59072;42.144;25.200;2022-07-23T11:05:25;8.55;;;4.03;;
71148;SDS011;59072;42.144;25.200;2022-07-23T11:13:42;13.20;;;4.93;;
71148;SDS011;59072;42.144;25.200;2022-07-23T11:16:15;8.13;;;3.80;;
71148;SDS011;59072;42.144;25.200;2022-07-23T11:31:55;7.05;;;4.10;;
71148;SDS011;59072;42.144;25.200;2022-07-23T11:37:01;7.90;;;4.18;;
71148;SDS011;59072;42.144;25.200;2022-07-23T11:39:29;12.15;;;4.32;;
71148;SDS011;59072;42.144;25.200;2022-07-23T11:44:27;11.50;;;4.47;;
71148;SDS011;59072;42.144;25.200;2022-07-23T11:47:03;11.38;;;4.47;;
71148;SDS011;59072;42.144;25.200;2022-07-23T11:49:33;9.57;;;5.10;;
71148;SDS011;59072;42.144;25.200;2022-07-23T11:52:06;9.80;;;5.87;;
71148;SDS011;59072;42.144;25.200;2022-07-23T11:54:37;8.98;;;4.60;;
71148;SDS011;59072;42.144;25.200;2022-07-23T11:57:16;8.93;;;4.20;;
71148;SDS011;59072;42.144;25.200;2022-07-23T12:02:09;9.90;;;4.00;;
71148;SDS011;59072;42.144;25.200;2022-07-23T12:07:03;10.27;;;4.18;;
71148;SDS011;59072;42.144;25.200;2022-07-23T12:09:28;8.47;;;4.23;;
71148;SDS011;59072;42.144;25.200;2022-07-23T12:11:58;9.33;;;3.90;;
71148;SDS011;59072;42.144;25.200;2022-07-23T12:14:24;10.68;;;4.10;;
71148;SDS011;59072;42.144;25.200;2022-07-23T12:17:09;9.13;;;3.80;;
71148;SDS011;59072;42.144;25.200;2022-07-23T12:19:35;10.15;;;4.45;;
71148;SDS011;59072;42.144;25.200;2022-07-23T12:22:00;8.23;;;3.70;;
71148;SDS011;59072;42.144;25.200;2022-07-23T12:24:26;8.87;;;4.07;;
71148;SDS011;59072;42.144;25.200;2022-07-23T12:27:07;11.30;;;4.37;;
71148;SDS011;59072;42.144;25.200;2022-07-23T12:29:34;7.60;;;4.30;;
71148;SDS011;59072;42.144;25.200;2022-07-23T12:32:01;9.27;;;4.15;;
71148;SDS011;59072;42.144;25.200;2022-07-23T12:34:27;12.53;;;4.40;;
71148;SDS011;59072;42.144;25.200;2022-07-23T12:36:52;9.63;;;4.17;;
71148;SDS011;59072;42.144;25.200;2022-07-23T12:39:30;6.63;;;4.00;;
71148;SDS011;59072;42.144;25.200;2022-07-23T12:41:56;11.00;;;4.18;;
71148;SDS011;59072;42.144;25.200;2022-07-23T12:44:22;9.93;;;4.17;;
71148;SDS011;59072;42.144;25.200;2022-07-23T12:46:53;9.80;;;4.10;;
71148;SDS011;59072;42.144;25.200;2022-07-23T12:49:26;8.32;;;3.95;;
71148;SDS011;59072;42.144;25.200;2022-07-23T12:51:52;9.02;;;4.75;;
71148;SDS011;59072;42.144;25.200;2022-07-23T12:54:18;8.30;;;4.03;;
71148;SDS011;59072;42.144;25.200;2022-07-23T12:56:53;9.52;;;4.10;;
71148;SDS011;59072;42.144;25.200;2022-07-23T12:59:18;7.33;;;4.40;;
71148;SDS011;59072;42.144;25.200;2022-07-23T13:01:54;12.23;;;4.78;;
71148;SDS011;59072;42.144;25.200;2022-07-23T13:04:23;14.68;;;4.65;;
71148;SDS011;59072;42.144;25.200;2022-07-23T13:06:51;7.57;;;4.70;;
71148;SDS011;59072;42.144;25.200;2022-07-23T13:09:21;8.90;;;4.03;;
71148;SDS011;59072;42.144;25.200;2022-07-23T13:11:49;11.05;;;4.43;;
71148;SDS011;59072;42.144;25.200;2022-07-23T13:14:16;9.60;;;4.50;;
71148;SDS011;59072;42.144;25.200;2022-07-23T13:16:43;9.32;;;4.53;;
71148;SDS011;59072;42.144;25.200;2022-07-23T13:19:09;8.80;;;4.47;;
71148;SDS011;59072;42.144;25.200;2022-07-23T13:21:35;11.67;;;4.43;;
71148;SDS011;59072;42.144;25.200;2022-07-23T13:24:00;14.50;;;4.90;;
71148;SDS011;59072;42.144;25.200;2022-07-23T13:26:26;8.07;;;4.40;;
71148;SDS011;59072;42.144;25.200;2022-07-23T13:28:52;10.90;;;4.32;;
71148;SDS011;59072;42.144;25.200;2022-07-23T13:31:18;9.82;;;5.07;;
71148;SDS011;59072;42.144;25.200;2022-07-23T13:33:44;9.93;;;4.40;;
71148;SDS011;59072;42.144;25.200;2022-07-23T13:36:10;9.45;;;4.28;;
71148;SDS011;59072;42.144;25.200;2022-07-23T13:38:36;12.73;;;4.93;;
71148;SDS011;59072;42.144;25.200;2022-07-23T13:41:01;9.67;;;4.67;;
71148;SDS011;59072;42.144;25.200;2022-07-23T13:43:28;9.35;;;5.07;;
71148;SDS011;59072;42.144;25.200;2022-07-23T13:48:20;11.67;;;4.40;;
71148;SDS011;59072;42.144;25.200;2022-07-23T13:50:47;11.27;;;4.50;;
71148;SDS011;59072;42.144;25.200;2022-07-23T13:53:14;9.98;;;4.40;;
71148;SDS011;59072;42.144;25.200;2022-07-23T13:55:45;9.52;;;4.75;;
71148;SDS011;59072;42.144;25.200;2022-07-23T13:58:13;7.50;;;4.63;;
71148;SDS011;59072;42.144;25.200;2022-07-23T14:00:40;9.15;;;4.40;;
71148;SDS011;59072;42.144;25.200;2022-07-23T14:03:07;9.20;;;4.43;;
71148;SDS011;59072;42.144;25.200;2022-07-23T14:05:33;11.30;;;5.18;;
71148;SDS011;59072;42.144;25.200;2022-07-23T14:07:58;9.23;;;4.80;;
71148;SDS011;59072;42.144;25.200;2022-07-23T14:10:24;10.03;;;4.60;;
71148;SDS011;59072;42.144;25.200;2022-07-23T14:12:51;11.97;;;4.67;;
71148;SDS011;59072;42.144;25.200;2022-07-23T14:15:18;10.05;;;4.60;;
71148;SDS011;59072;42.144;25.200;2022-07-23T14:17:44;9.77;;;4.70;;
71148;SDS011;59072;42.144;25.200;2022-07-23T14:20:11;9.73;;;4.95;;
71148;SDS011;59072;42.144;25.200;2022-07-23T14:22:38;15.95;;;6.50;;
71148;SDS011;59072;42.144;25.200;2022-07-23T14:25:04;16.95;;;5.25;;
71148;SDS011;59072;42.144;25.200;2022-07-23T14:27:31;14.10;;;5.65;;
71148;SDS011;59072;42.144;25.200;2022-07-23T14:29:57;12.33;;;5.10;;
71148;SDS011;59072;42.144;25.200;2022-07-23T14:32:23;10.73;;;4.78;;
71148;SDS011;59072;42.144;25.200;2022-07-23T14:34:49;12.10;;;4.90;;
71148;SDS011;59072;42.144;25.200;2022-07-23T14:37:15;15.43;;;5.10;;
71148;SDS011;59072;42.144;25.200;2022-07-23T14:39:41;8.55;;;4.75;;
71148;SDS011;59072;42.144;25.200;2022-07-23T14:42:08;13.43;;;5.28;;
71148;SDS011;59072;42.144;25.200;2022-07-23T14:44:34;10.85;;;4.60;;
71148;SDS011;59072;42.144;25.200;2022-07-23T14:49:28;9.45;;;4.63;;
71148;SDS011;59072;42.144;25.200;2022-07-23T14:51:53;9.47;;;5.27;;
71148;SDS011;59072;42.144;25.200;2022-07-23T14:54:19;10.40;;;5.10;;
71148;SDS011;59072;42.144;25.200;2022-07-23T14:56:44;13.37;;;4.97;;
71148;SDS011;59072;42.144;25.200;2022-07-23T14:59:10;11.25;;;4.80;;
71148;SDS011;59072;42.144;25.200;2022-07-23T15:01:36;8.93;;;4.47;;
71148;SDS011;59072;42.144;25.200;2022-07-23T15:04:03;12.63;;;4.70;;
71148;SDS011;59072;42.144;25.200;2022-07-23T15:06:29;8.82;;;4.85;;
71148;SDS011;59072;42.144;25.200;2022-07-23T15:08:54;9.93;;;5.00;;
71148;SDS011;59072;42.144;25.200;2022-07-23T15:11:20;11.37;;;5.27;;
71148;SDS011;59072;42.144;25.200;2022-07-23T15:13:48;14.35;;;5.07;;
71148;SDS011;59072;42.144;25.200;2022-07-23T15:16:14;13.70;;;4.80;;
71148;SDS011;59072;42.144;25.200;2022-07-23T15:18:40;9.82;;;4.40;;
71148;SDS011;59072;42.144;25.200;2022-07-23T15:21:05;9.53;;;4.77;;
71148;SDS011;59072;42.144;25.200;2022-07-23T15:23:31;11.67;;;4.80;;
71148;SDS011;59072;42.144;25.200;2022-07-23T15:25:57;11.00;;;4.73;;
71148;SDS011;59072;42.144;25.200;2022-07-23T15:28:23;11.73;;;4.72;;
71148;SDS011;59072;42.144;25.200;2022-07-23T15:30:49;10.00;;;5.50;;
71148;SDS011;59072;42.144;25.200;2022-07-23T15:33:16;14.82;;;6.47;;
71148;SDS011;59072;42.144;25.200;2022-07-23T15:35:41;16.47;;;6.83;;
71148;SDS011;59072;42.144;25.200;2022-07-23T15:38:07;12.43;;;6.70;;
71148;SDS011;59072;42.144;25.200;2022-07-23T15:40:32;15.93;;;7.40;;